Time;durP1;ratioP1;P1;durP2;ratioP2;P2;SDS_P1;SDS_P2;PMS_P1;PMS_P2;Temp;Humidity;BMP_temperature;BMP_pressure;BME280_temperature;BME280_humidity;BME280_pressure;Samples;Min_cycle;Max_cycle;Signal;HPM_P1;HPM_P2
2023/12/10 00:01:21;;;;;;;7.28;2.50;;;;;;;5.49;100.00;98931.00;6115634;23;20025;-83
2023/12/10 00:03:48;;;;;;;5.57;2.83;;;;;;;5.53;100.00;98932.66;6121005;23;20022;-84
2023/12/10 00:06:15;;;;;;;7.47;2.67;;;;;;;5.63;100.00;98930.75;6144654;23;20418;-82
2023/12/10 00:08:44;;;;;;;12.93;3.10;;;;;;;5.71;100.00;98938.41;6118708;23;20447;-84
2023/12/10 00:11:11;;;;;;;8.68;3.08;;;;;;;5.83;100.00;98937.34;6094093;23;20066;-85
2023/12/10 00:13:39;;;;;;;8.20;3.78;;;;;;;5.93;100.00;98936.28;6095977;23;20029;-81
2023/12/10 00:16:06;;;;;;;11.35;3.70;;;;;;;6.06;100.00;98942.16;6094395;23;20048;-84
2023/12/10 00:18:33;;;;;;;12.20;4.57;;;;;;;6.12;100.00;98929.91;6120180;23;20025;-81
2023/12/10 00:20:59;;;;;;;16.75;6.47;;;;;;;6.30;100.00;98920.06;6117445;23;20029;-84
2023/12/10 00:23:27;;;;;;;14.18;5.43;;;;;;;6.45;100.00;98911.09;6120214;23;20078;-82
2023/12/10 00:25:54;;;;;;;13.60;4.55;;;;;;;6.59;100.00;98905.63;6097508;23;20506;-81
2023/12/10 00:28:20;;;;;;;19.90;5.10;;;;;;;6.72;100.00;98901.03;6096137;23;20422;-81
2023/12/10 00:30:47;;;;;;;14.88;5.13;;;;;;;6.81;100.00;98905.19;6094036;23;20025;-81
2023/12/10 00:33:15;;;;;;;15.90;5.78;;;;;;;6.88;100.00;98912.81;6096392;23;20056;-82
2023/12/10 00:35:45;;;;;;;18.48;5.13;;;;;;;6.94;100.00;98896.22;6095619;23;20484;-82
2023/12/10 00:38:11;;;;;;;19.75;6.45;;;;;;;7.09;100.00;98905.41;6118546;23;20085;-82
2023/12/10 00:40:41;;;;;;;22.40;5.38;;;;;;;7.17;100.00;98910.44;6117859;23;20078;-82
2023/12/10 00:43:08;;;;;;;24.85;5.43;;;;;;;7.23;100.00;98921.56;6120251;23;20021;-82
2023/12/10 00:45:35;;;;;;;20.92;6.15;;;;;;;7.31;100.00;98921.38;6094936;23;20450;-83
2023/12/10 00:48:01;;;;;;;19.15;6.38;;;;;;;7.39;100.00;98926.41;6120452;23;20486;-81
2023/12/10 00:50:28;;;;;;;13.68;4.00;;;;;;;7.39;100.00;98937.69;6095876;23;20025;-85
2023/12/10 00:52:55;;;;;;;19.67;5.25;;;;;;;7.41;100.00;98953.28;6119750;23;20514;-82
2023/12/10 00:55:21;;;;;;;17.10;4.90;;;;;;;7.48;100.00;98940.97;6123135;23;20040;-81
2023/12/10 00:57:48;;;;;;;19.52;3.90;;;;;;;7.51;100.00;98948.69;6097838;23;20029;-83
2023/12/10 01:00:15;;;;;;;17.80;5.18;;;;;;;7.60;100.00;98961.47;6121306;23;20052;-82
2023/12/10 01:02:45;;;;;;;18.13;4.68;;;;;;;7.67;100.00;98970.88;6098559;23;20434;-84
2023/12/10 01:05:15;;;;;;;15.65;6.38;;;;;;;7.69;100.00;98956.06;6124155;23;20739;-82
2023/12/10 01:07:44;;;;;;;19.42;4.68;;;;;;;7.71;100.00;98962.09;6118862;23;20018;-83
2023/12/10 01:10:19;;;;;;;14.38;3.70;;;;;;;7.74;100.00;98968.97;6120684;23;20025;-81
2023/12/10 01:12:46;;;;;;;11.35;3.88;;;;;;;7.72;100.00;98973.38;6096067;23;20041;-84
2023/12/10 01:15:14;;;;;;;14.98;3.05;;;;;;;7.71;100.00;98987.28;6120755;23;20029;-82
2023/12/10 01:17:46;;;;;;;11.43;3.40;;;;;;;7.69;100.00;98991.66;6096195;23;20040;-86
2023/12/10 01:20:16;;;;;;;14.65;3.47;;;;;;;7.65;100.00;98990.88;6119349;23;20029;-81
2023/12/10 01:22:42;;;;;;;11.98;2.83;;;;;;;7.69;100.00;98999.47;6093353;23;20030;-83
2023/12/10 01:25:09;;;;;;;18.17;4.40;;;;;;;7.70;100.00;98996.84;6094109;23;20021;-80
2023/12/10 01:27:38;;;;;;;21.58;3.90;;;;;;;7.68;100.00;98993.44;6095218;23;20084;-82
2023/12/10 01:30:07;;;;;;;14.55;3.10;;;;;;;7.74;100.00;99010.66;6118499;23;20450;-81
2023/12/10 01:32:33;;;;;;;21.60;4.18;;;;;;;7.73;100.00;99008.94;6118713;23;20482;-82
2023/12/10 01:35:04;;;;;;;18.00;3.58;;;;;;;7.75;100.00;99013.22;6095313;23;20334;-82
2023/12/10 01:37:34;;;;;;;18.08;3.83;;;;;;;7.78;100.00;99023.56;6095267;23;20021;-81
2023/12/10 01:40:05;;;;;;;13.70;4.28;;;;;;;7.75;100.00;99021.03;6094327;23;20569;-80
2023/12/10 01:42:33;;;;;;;10.63;3.28;;;;;;;7.78;100.00;99018.38;6142784;23;20395;-82
2023/12/10 01:45:00;;;;;;;19.90;4.00;;;;;;;7.80;100.00;99030.50;6118980;23;20017;-82
2023/12/10 01:47:29;;;;;;;14.90;3.63;;;;;;;7.79;100.00;99045.25;6095707;23;20026;-82
2023/12/10 01:49:57;;;;;;;23.65;4.97;;;;;;;7.86;100.00;99054.66;6094757;23;20032;-83
2023/12/10 01:52:24;;;;;;;17.38;4.28;;;;;;;7.84;100.00;99045.16;6095431;23;20025;-80
2023/12/10 01:54:50;;;;;;;15.95;3.75;;;;;;;7.82;100.00;99041.72;6094915;23;20176;-81
2023/12/10 01:57:18;;;;;;;14.27;4.32;;;;;;;7.86;100.00;99054.66;6119824;23;20021;-83
2023/12/10 01:59:45;;;;;;;34.67;6.55;;;;;;;7.89;100.00;99058.94;6092804;23;20087;-82
2023/12/10 02:02:12;;;;;;;24.50;4.60;;;;;;;7.89;100.00;99058.94;6094010;23;20024;-82
2023/12/10 02:04:40;;;;;;;18.27;5.07;;;;;;;7.90;100.00;99058.91;6094808;23;20036;-82
2023/12/10 02:07:07;;;;;;;21.73;4.80;;;;;;;7.87;100.00;99058.94;6119676;23;20028;-81
2023/12/10 02:09:34;;;;;;;19.55;5.40;;;;;;;7.81;100.00;99055.63;6114579;23;20029;-83
2023/12/10 02:12:01;;;;;;;13.43;3.72;;;;;;;7.80;100.00;99074.78;6093771;23;20084;-82
2023/12/10 02:14:27;;;;;;;16.92;3.42;;;;;;;7.76;100.00;99069.63;6120615;23;20021;-82
2023/12/10 02:16:54;;;;;;;23.15;4.10;;;;;;;7.79;100.00;99084.31;6120787;23;20025;-83
2023/12/10 02:19:21;;;;;;;15.18;5.10;;;;;;;7.81;100.00;99072.13;6095018;23;20025;-80
2023/12/10 02:21:52;;;;;;;19.58;7.32;;;;;;;7.77;100.00;99079.16;6118969;23;20041;-83
2023/12/10 02:24:27;;;;;;;34.25;6.40;;;;;;;7.69;100.00;99078.50;6095245;23;20025;-84
2023/12/10 02:26:55;;;;;;;19.58;4.90;;;;;;;7.65;100.00;99092.44;6120912;23;20442;-83
2023/12/10 02:29:22;;;;;;;23.95;4.22;;;;;;;7.71;100.00;99094.91;6121102;23;20372;-81
2023/12/10 02:31:50;;;;;;;28.75;4.90;;;;;;;7.70;100.00;99092.34;6120883;23;20064;-83
2023/12/10 02:34:17;;;;;;;28.67;4.43;;;;;;;7.64;100.00;99082.94;6097212;23;20053;-81
2023/12/10 02:36:43;;;;;;;28.58;4.40;;;;;;;7.60;100.00;99094.28;6121098;23;20029;-82
2023/12/10 02:39:10;;;;;;;18.38;4.40;;;;;;;7.59;100.00;99098.66;6095613;23;20018;-83
2023/12/10 02:41:38;;;;;;;20.33;4.28;;;;;;;7.57;100.00;99103.06;6096542;23;20100;-83
2023/12/10 02:44:05;;;;;;;23.10;5.43;;;;;;;7.60;100.00;99102.97;6096366;23;20030;-82
2023/12/10 02:46:31;;;;;;;17.35;4.78;;;;;;;7.62;100.00;99100.34;6097079;23;20022;-81
2023/12/10 02:48:58;;;;;;;37.03;7.00;;;;;;;7.60;100.00;99094.28;6095054;23;20036;-82
2023/12/10 02:51:24;;;;;;;28.85;7.47;;;;;;;7.64;100.00;99093.34;6095290;23;20017;-83
2023/12/10 02:53:51;;;;;;;17.65;4.28;;;;;;;7.67;100.00;99102.84;6092766;23;20376;-80
2023/12/10 02:56:17;;;;;;;20.70;4.63;;;;;;;7.61;100.00;99107.31;6095434;23;20029;-80
2023/12/10 02:58:44;;;;;;;24.55;6.95;;;;;;;7.61;100.00;99109.03;6118897;23;20801;-82
2023/12/10 03:01:12;;;;;;;22.13;6.18;;;;;;;7.62;100.00;99118.56;6118699;23;20075;-83
2023/12/10 03:03:39;;;;;;;16.52;3.75;;;;;;;7.69;100.00;99117.56;6120421;23;20068;-81
2023/12/10 03:06:07;;;;;;;23.88;4.28;;;;;;;7.72;100.00;99124.44;6095039;23;20029;-81
2023/12/10 03:08:33;;;;;;;21.98;5.85;;;;;;;7.73;100.00;99127.00;6118772;23;20070;-82
2023/12/10 03:11:00;;;;;;;20.20;5.95;;;;;;;7.75;100.00;99129.59;6090708;23;20033;-84
2023/12/10 03:13:28;;;;;;;31.95;7.82;;;;;;;7.83;100.00;99132.03;6095701;23;20056;-81
2023/12/10 03:15:55;;;;;;;19.15;4.72;;;;;;;7.84;100.00;99131.97;6120595;23;20450;-81
2023/12/10 03:18:22;;;;;;;18.58;6.68;;;;;;;7.88;100.00;99143.19;6096316;23;20025;-81
2023/12/10 03:20:48;;;;;;;20.20;4.40;;;;;;;7.91;100.00;99133.56;6118793;23;20022;-82
2023/12/10 03:23:15;;;;;;;14.13;4.25;;;;;;;7.88;100.00;99133.63;6095096;23;20109;-82
2023/12/10 03:25:42;;;;;;;21.60;4.88;;;;;;;7.90;100.00;99137.06;6096999;23;20792;-80
2023/12/10 03:28:09;;;;;;;22.30;5.63;;;;;;;7.92;100.00;99147.44;6094947;23;20029;-81
2023/12/10 03:30:35;;;;;;;19.15;5.10;;;;;;;7.92;100.00;99143.06;6097006;23;20024;-82
2023/12/10 03:33:02;;;;;;;18.48;3.95;;;;;;;7.94;100.00;99143.91;6094332;23;20393;-81
2023/12/10 03:35:28;;;;;;;29.95;4.35;;;;;;;7.99;100.00;99156.84;6095345;23;20613;-81
2023/12/10 03:37:55;;;;;;;27.27;4.40;;;;;;;7.99;100.00;99159.44;6118385;23;20021;-82
2023/12/10 03:40:22;;;;;;;18.02;5.10;;;;;;;8.05;100.00;99167.09;6119448;23;20463;-82
2023/12/10 03:42:49;;;;;;;21.65;6.57;;;;;;;8.04;100.00;99159.34;6118666;23;20092;-82
2023/12/10 03:45:15;;;;;;;17.27;4.55;;;;;;;8.03;100.00;99168.91;6097722;23;20029;-82
2023/12/10 03:47:46;;;;;;;17.05;4.75;;;;;;;7.99;100.00;99161.19;6119964;23;20021;-81
2023/12/10 03:50:18;;;;;;;16.40;3.70;;;;;;;8.01;100.00;99167.22;6118648;23;20024;-81
2023/12/10 03:52:45;;;;;;;18.83;3.67;;;;;;;8.02;100.00;99176.78;6094350;23;20387;-83
2023/12/10 03:55:12;;;;;;;24.85;5.80;;;;;;;8.04;100.00;99177.56;6095790;23;20025;-82
2023/12/10 03:57:38;;;;;;;20.75;5.80;;;;;;;7.99;100.00;99188.13;6122507;23;20029;-81
2023/12/10 04:00:06;;;;;;;18.27;4.63;;;;;;;8.05;100.00;99182.75;6093604;23;20082;-82
2023/12/10 04:02:33;;;;;;;14.27;4.05;;;;;;;8.09;100.00;99187.00;6117322;23;20780;-81
2023/12/10 04:05:00;;;;;;;13.88;5.03;;;;;;;8.10;100.00;99193.09;6094111;23;20116;-82
2023/12/10 04:07:26;;;;;;;27.77;4.80;;;;;;;8.07;100.00;99198.34;6095249;23;20032;-82
2023/12/10 04:09:53;;;;;;;12.27;4.25;;;;;;;8.10;100.00;99195.69;6094364;23;20021;-83
2023/12/10 04:12:20;;;;;;;15.57;4.60;;;;;;;8.06;100.00;99202.72;6095446;23;20025;-82
2023/12/10 04:14:48;;;;;;;25.00;5.47;;;;;;;8.05;100.00;99203.59;6121856;23;20028;-80
2023/12/10 04:17:14;;;;;;;25.17;4.40;;;;;;;8.00;100.00;99202.00;6116645;23;20064;-81
2023/12/10 04:19:44;;;;;;;30.42;6.97;;;;;;;7.95;100.00;99217.72;6094548;23;20021;-81
2023/12/10 04:22:11;;;;;;;26.48;4.78;;;;;;;7.91;100.00;99211.72;6095299;23;20022;-80
2023/12/10 04:24:40;;;;;;;18.70;4.22;;;;;;;7.86;100.00;99210.09;6121143;23;20109;-81
2023/12/10 04:27:07;;;;;;;18.27;4.38;;;;;;;7.81;100.00;99202.41;6121450;23;20111;-80
2023/12/10 04:29:38;;;;;;;17.55;4.13;;;;;;;7.75;100.00;99211.19;6094923;23;20017;-81
2023/12/10 04:32:14;;;;;;;14.95;4.25;;;;;;;7.69;100.00;99211.31;6119717;23;20025;-81
2023/12/10 04:34:41;;;;;;;20.80;5.03;;;;;;;7.59;100.00;99209.78;6120983;23;20028;-81
2023/12/10 04:37:10;;;;;;;16.25;4.47;;;;;;;7.56;100.00;99213.31;6149060;23;20044;-82
2023/12/10 04:39:37;;;;;;;16.60;3.97;;;;;;;7.56;100.00;99210.72;6070897;23;20025;-82
2023/12/10 04:42:04;;;;;;;15.50;4.30;;;;;;;7.53;100.00;99208.16;6094381;23;20697;-81
2023/12/10 04:44:32;;;;;;;14.52;4.50;;;;;;;7.52;100.00;99208.19;6094722;23;20470;-81
2023/12/10 04:47:01;;;;;;;23.85;5.22;;;;;;;7.48;100.00;99202.16;6094794;23;20028;-81
2023/12/10 04:49:35;;;;;;;18.73;5.57;;;;;;;7.48;100.00;99204.78;6093964;23;20017;-80
2023/12/10 04:52:05;;;;;;;19.23;5.82;;;;;;;7.47;100.00;99203.09;6118159;23;20032;-82
2023/12/10 04:54:35;;;;;;;13.10;3.90;;;;;;;7.45;100.00;99200.47;6117869;23;20021;-81
2023/12/10 04:57:01;;;;;;;19.23;5.68;;;;;;;7.45;100.00;99203.09;6118856;23;20041;-81
2023/12/10 04:59:28;;;;;;;18.85;5.45;;;;;;;7.42;100.00;99197.09;6092772;23;20033;-81
2023/12/10 05:01:55;;;;;;;23.55;6.00;;;;;;;7.39;100.00;99205.84;6091529;23;20025;-80
2023/12/10 05:04:21;;;;;;;13.23;3.70;;;;;;;7.34;100.00;99197.25;6094652;23;20384;-82
2023/12/10 05:06:48;;;;;;;23.23;4.63;;;;;;;7.38;100.00;99203.22;6094453;23;20697;-80
2023/12/10 05:09:15;;;;;;;12.65;3.97;;;;;;;7.37;100.00;99196.34;6120236;23;20414;-80
2023/12/10 05:11:42;;;;;;;19.20;4.25;;;;;;;7.36;100.00;99210.22;6119227;23;20463;-81
2023/12/10 05:14:09;;;;;;;14.85;5.00;;;;;;;7.37;100.00;99207.59;6094813;23;20069;-81
2023/12/10 05:16:38;;;;;;;19.35;4.45;;;;;;;7.41;100.00;99211.00;6119078;23;20120;-81
2023/12/10 05:19:07;;;;;;;14.80;3.78;;;;;;;7.41;100.00;99201.44;6092967;23;20412;-80
2023/12/10 05:21:34;;;;;;;19.33;6.22;;;;;;;7.47;100.00;99203.09;6117760;23;20029;-80
2023/12/10 05:24:01;;;;;;;20.77;3.67;;;;;;;7.47;100.00;99204.81;6115343;23;20053;-81
2023/12/10 05:26:28;;;;;;;8.90;2.55;;;;;;;7.51;100.00;99201.25;6095078;23;20029;-81
2023/12/10 05:28:54;;;;;;;12.90;2.90;;;;;;;7.55;100.00;99211.59;6095680;23;20034;-81
2023/12/10 05:31:21;;;;;;;12.48;3.20;;;;;;;7.56;100.00;99212.44;6096672;23;20029;-79
2023/12/10 05:33:50;;;;;;;11.48;4.53;;;;;;;7.55;100.00;99205.53;6095472;23;20025;-80
2023/12/10 05:36:19;;;;;;;9.27;3.08;;;;;;;7.55;100.00;99195.97;6119659;23;20026;-81
2023/12/10 05:38:45;;;;;;;13.02;2.95;;;;;;;7.56;100.00;99207.22;6143005;23;20049;-82
2023/12/10 05:41:12;;;;;;;9.13;3.38;;;;;;;7.61;100.00;99208.00;6095856;23;20087;-81
2023/12/10 05:43:39;;;;;;;12.40;2.25;;;;;;;7.64;100.00;99213.16;6120192;23;20412;-81
2023/12/10 05:46:08;;;;;;;12.43;3.20;;;;;;;7.65;100.00;99206.19;6120154;23;20124;-82
2023/12/10 05:48:35;;;;;;;5.78;2.30;;;;;;;7.65;100.00;99214.00;6144512;23;20113;-83
2023/12/10 05:51:05;;;;;;;9.95;2.70;;;;;;;7.63;100.00;99206.22;6119069;23;20017;-80
2023/12/10 05:53:32;;;;;;;9.45;1.90;;;;;;;7.69;100.00;99215.66;6096388;23;20758;-81
2023/12/10 05:55:58;;;;;;;11.15;2.22;;;;;;;7.68;100.00;99221.75;6119771;23;20119;-83
2023/12/10 05:58:25;;;;;;;7.63;1.77;;;;;;;7.65;100.00;99227.03;6094476;23;20028;-81
2023/12/10 06:00:55;;;;;;;7.68;1.75;;;;;;;7.62;100.00;99220.13;6096385;23;20395;-82
2023/12/10 06:03:24;;;;;;;3.50;1.70;;;;;;;7.64;100.00;99222.69;6095202;23;20719;-82
2023/12/10 06:05:55;;;;;;;8.88;2.67;;;;;;;7.60;100.00;99227.09;6096903;23;20026;-80
2023/12/10 06:08:25;;;;;;;5.18;1.40;;;;;;;7.57;100.00;99233.25;6096267;23;20031;-82
2023/12/10 06:10:52;;;;;;;1.40;1.25;;;;;;;7.52;100.00;99226.41;6120516;23;20502;-81
2023/12/10 06:13:22;;;;;;;3.90;0.98;;;;;;;7.43;100.00;99225.72;6095825;23;20037;-81
2023/12/10 06:15:49;;;;;;;9.88;2.42;;;;;;;7.41;100.00;99226.63;6119147;23;20378;-81
2023/12/10 06:18:16;;;;;;;3.13;1.50;;;;;;;7.40;100.00;99227.50;6143113;23;20053;-81
2023/12/10 06:20:43;;;;;;;5.45;1.40;;;;;;;7.36;100.00;99228.47;6095094;23;20445;-83
2023/12/10 06:23:10;;;;;;;6.35;1.55;;;;;;;7.32;100.00;99237.22;6117128;23;20088;-82
2023/12/10 06:25:36;;;;;;;4.15;1.63;;;;;;;7.31;100.00;99233.72;6119730;23;20087;-81
2023/12/10 06:28:03;;;;;;;6.05;1.40;;;;;;;7.30;100.00;99237.25;6092899;23;20704;-79
2023/12/10 06:30:30;;;;;;;4.68;1.20;;;;;;;7.30;100.00;99252.88;6118746;23;20013;-81
2023/12/10 06:32:59;;;;;;;8.60;1.60;;;;;;;7.24;100.00;99245.16;6092738;23;20082;-80
2023/12/10 06:35:26;;;;;;;7.55;2.15;;;;;;;7.23;100.00;99252.09;6093859;23;20026;-81
2023/12/10 06:37:53;;;;;;;5.47;1.27;;;;;;;7.22;100.00;99258.22;6118569;23;20021;-81
2023/12/10 06:40:19;;;;;;;8.50;1.80;;;;;;;7.16;100.00;99253.09;6095364;23;20021;-81
2023/12/10 06:42:46;;;;;;;5.50;1.25;;;;;;;7.14;100.00;99256.63;6118383;23;20018;-82
2023/12/10 06:45:13;;;;;;;5.50;1.65;;;;;;;7.15;100.00;99260.94;6094955;23;20025;-81
2023/12/10 06:47:42;;;;;;;3.47;1.42;;;;;;;7.06;100.00;99256.75;6118007;23;20025;-81
2023/12/10 06:50:09;;;;;;;8.57;1.25;;;;;;;7.04;100.00;99264.59;6092742;23;20571;-82
2023/12/10 06:52:36;;;;;;;5.40;1.35;;;;;;;7.01;100.00;99272.41;6118116;23;20519;-82
2023/12/10 06:55:04;;;;;;;2.65;1.20;;;;;;;6.97;100.00;99268.16;6094372;23;20025;-80
2023/12/10 06:57:30;;;;;;;5.85;1.45;;;;;;;6.94;100.00;99270.81;6117483;23;20367;-80
2023/12/10 06:59:57;;;;;;;3.53;1.20;;;;;;;6.95;100.00;99267.34;6092716;23;20032;-83
2023/12/10 07:02:24;;;;;;;4.88;1.58;;;;;;;6.96;100.00;99276.84;6094369;23;20080;-81
2023/12/10 07:04:50;;;;;;;4.80;1.40;;;;;;;6.98;100.00;99277.69;6119894;23;20080;-81
2023/12/10 07:07:17;;;;;;;4.97;1.13;;;;;;;6.99;100.00;99266.41;6094019;23;20124;-81
2023/12/10 07:09:43;;;;;;;6.63;0.90;;;;;;;7.02;100.00;99275.91;6115916;23;20030;-82
2023/12/10 07:12:10;;;;;;;8.68;1.88;;;;;;;7.00;100.00;99273.34;6119322;23;20768;-82
2023/12/10 07:14:39;;;;;;;4.32;0.90;;;;;;;7.07;100.00;99272.31;6095453;23;20026;-81
2023/12/10 07:17:06;;;;;;;5.32;1.27;;;;;;;7.03;100.00;99278.47;6121451;23;20037;-80
2023/12/10 07:19:39;;;;;;;4.97;1.27;;;;;;;6.99;100.00;99276.81;6118219;23;20462;-82
2023/12/10 07:22:06;;;;;;;5.35;1.88;;;;;;;7.04;100.00;99288.00;6095132;23;20029;-80
2023/12/10 07:24:32;;;;;;;2.35;1.65;;;;;;;7.04;100.00;99288.00;6119373;23;20026;-80
2023/12/10 07:26:59;;;;;;;2.92;1.63;;;;;;;7.01;100.00;99285.44;6094821;23;20022;-80
2023/12/10 07:29:26;;;;;;;3.25;0.95;;;;;;;6.97;100.00;99290.72;6095140;23;20056;-82
2023/12/10 07:31:52;;;;;;;1.17;0.85;;;;;;;7.04;100.00;99282.81;6093974;23;20025;-83
2023/12/10 07:34:19;;;;;;;4.43;1.90;;;;;;;7.03;100.00;99286.28;6094223;23;20121;-82
2023/12/10 07:36:45;;;;;;;2.80;1.00;;;;;;;7.04;100.00;99277.59;6119904;23;20083;-82
2023/12/10 07:39:13;;;;;;;2.70;0.90;;;;;;;7.10;100.00;99285.31;6093394;23;20021;-81
2023/12/10 07:41:42;;;;;;;2.20;1.00;;;;;;;7.10;100.00;99289.63;6094667;23;20027;-81
2023/12/10 07:44:09;;;;;;;3.13;0.95;;;;;;;7.11;100.00;99292.22;6092694;23;20029;-80
2023/12/10 07:46:36;;;;;;;3.35;1.90;;;;;;;7.08;100.00;99284.47;6143310;23;20463;-81
2023/12/10 07:49:06;;;;;;;9.63;2.03;;;;;;;7.09;100.00;99296.59;6117480;23;20026;-81
2023/12/10 07:51:32;;;;;;;5.13;1.10;;;;;;;7.11;100.00;99289.59;6119957;23;20017;-83
2023/12/10 07:54:03;;;;;;;6.78;1.48;;;;;;;7.12;100.00;99293.09;6114819;23;20052;-82
2023/12/10 07:56:31;;;;;;;6.40;1.45;;;;;;;7.11;100.00;99294.81;6142331;23;20029;-81
2023/12/10 07:59:04;;;;;;;7.70;1.42;;;;;;;7.12;100.00;99288.72;6119517;23;20076;-80
2023/12/10 08:01:34;;;;;;;3.65;1.33;;;;;;;7.15;100.00;99289.56;6097979;23;20599;-82
2023/12/10 08:04:14;;;;;;;6.93;1.85;;;;;;;7.15;100.00;99294.78;6120788;23;20032;-80
2023/12/10 08:06:42;;;;;;;5.45;1.30;;;;;;;7.17;100.00;99306.00;6116159;23;20120;-81
2023/12/10 08:09:12;;;;;;;3.83;1.63;;;;;;;7.21;100.00;99295.53;6093659;23;20450;-82
2023/12/10 08:11:40;;;;;;;4.75;1.00;;;;;;;7.27;100.00;99313.66;6093898;23;20653;-81
2023/12/10 08:14:09;;;;;;;2.72;0.90;;;;;;;7.28;100.00;99298.88;6093354;23;20036;-81
2023/12/10 08:16:42;;;;;;;3.60;0.75;;;;;;;7.31;100.00;99301.41;6120290;23;20522;-82
2023/12/10 08:19:11;;;;;;;6.03;1.08;;;;;;;7.36;100.00;99322.19;6119247;23;20021;-82
2023/12/10 08:21:39;;;;;;;6.47;0.80;;;;;;;7.33;100.00;99306.63;6119292;23;20356;-81
2023/12/10 08:24:10;;;;;;;2.38;1.17;;;;;;;7.37;100.00;99321.28;6120137;23;20028;-81
2023/12/10 08:26:41;;;;;;;2.70;1.02;;;;;;;7.36;100.00;99319.56;6118501;23;20025;-81
2023/12/10 08:29:12;;;;;;;5.53;1.38;;;;;;;7.34;100.00;99323.94;6121644;23;20059;-81
2023/12/10 08:31:42;;;;;;;6.32;2.13;;;;;;;7.33;100.00;99320.47;6122084;23;20043;-82
2023/12/10 08:34:27;;;;;;;5.00;1.45;;;;;;;7.32;100.00;99315.31;6096353;23;20033;-81
2023/12/10 08:36:55;;;;;;;5.75;1.27;;;;;;;7.24;100.00;99315.44;6118761;23;20483;-82
2023/12/10 08:39:25;;;;;;;5.80;1.15;;;;;;;7.19;100.00;99318.09;6093480;23;20109;-83
2023/12/10 08:41:51;;;;;;;9.45;1.30;;;;;;;7.20;100.00;99325.03;6100106;23;20819;-81
2023/12/10 08:44:20;;;;;;;8.27;1.15;;;;;;;7.15;100.00;99320.81;6098885;23;20048;-83
2023/12/10 08:46:46;;;;;;;4.75;1.75;;;;;;;7.16;100.00;99318.16;6118805;23;20035;-81
2023/12/10 08:49:13;;;;;;;5.85;1.17;;;;;;;7.15;100.00;99328.59;6116757;23;20399;-82
2023/12/10 08:51:42;;;;;;;3.65;1.55;;;;;;;7.16;100.00;99322.50;6117821;23;20072;-82
2023/12/10 08:54:09;;;;;;;6.07;1.90;;;;;;;7.13;100.00;99318.19;6118367;23;20076;-83
2023/12/10 08:56:39;;;;;;;3.20;1.10;;;;;;;7.18;100.00;99332.00;6095313;23;20030;-80
2023/12/10 08:59:16;;;;;;;6.55;1.90;;;;;;;7.19;100.00;99323.31;6118873;23;20036;-84
2023/12/10 09:01:43;;;;;;;6.70;1.50;;;;;;;7.20;100.00;99317.22;6095178;23;20017;-83
2023/12/10 09:04:13;;;;;;;4.93;1.38;;;;;;;7.28;100.00;99343.97;6142227;23;20018;-84
2023/12/10 09:06:40;;;;;;;4.28;1.30;;;;;;;7.28;100.00;99338.78;6119568;23;20030;-81
2023/12/10 09:09:06;;;;;;;8.35;2.05;;;;;;;7.35;100.00;99338.69;6093137;23;20306;-82
2023/12/10 09:11:42;;;;;;;6.85;1.70;;;;;;;7.37;100.00;99336.91;6119375;23;20017;-82
2023/12/10 09:14:10;;;;;;;4.60;1.38;;;;;;;7.42;100.00;99366.34;6093645;23;20052;-82
2023/12/10 09:16:40;;;;;;;4.15;1.52;;;;;;;7.43;100.00;99347.19;6094541;23;20022;-81
2023/12/10 09:19:07;;;;;;;4.43;1.58;;;;;;;7.49;100.00;99336.69;6115578;23;20029;-80
2023/12/10 09:21:37;;;;;;;4.65;1.70;;;;;;;7.51;100.00;99355.75;6118782;23;20355;-81
2023/12/10 09:24:07;;;;;;;6.13;1.85;;;;;;;7.50;100.00;99342.78;6093534;23;20716;-81
2023/12/10 09:26:37;;;;;;;5.95;1.50;;;;;;;7.54;100.00;99358.31;6118009;23;20025;-82
2023/12/10 09:29:04;;;;;;;7.18;2.50;;;;;;;7.58;100.00;99353.91;6090571;23;20032;-81
2023/12/10 09:31:31;;;;;;;2.90;2.03;;;;;;;7.64;100.00;99371.16;6118540;23;20203;-83
2023/12/10 09:33:57;;;;;;;6.88;1.58;;;;;;;7.68;100.00;99365.88;6141877;23;20368;-82
2023/12/10 09:36:26;;;;;;;5.45;1.25;;;;;;;7.65;100.00;99360.72;6118673;23;20026;-82
2023/12/10 09:38:53;;;;;;;6.60;1.92;;;;;;;7.69;100.00;99366.72;6091663;23;20036;-82
2023/12/10 09:41:20;;;;;;;5.57;1.60;;;;;;;7.69;100.00;99371.94;6093257;23;20047;-81
2023/12/10 09:43:48;;;;;;;2.70;1.50;;;;;;;7.62;100.00;99365.97;6092908;23;20072;-83
2023/12/10 09:46:17;;;;;;;2.30;0.80;;;;;;;7.62;100.00;99382.47;6115318;23;20029;-84
2023/12/10 09:48:45;;;;;;;4.63;1.38;;;;;;;7.61;100.00;99385.09;6091183;23;20076;-81
2023/12/10 09:51:12;;;;;;;5.85;3.00;;;;;;;7.60;100.00;99366.00;6117482;23;20032;-82
2023/12/10 09:53:45;;;;;;;7.05;1.63;;;;;;;7.64;100.00;99392.00;6117378;23;20098;-82
2023/12/10 09:56:11;;;;;;;7.78;1.50;;;;;;;7.63;100.00;99393.75;6118347;23;20486;-81
2023/12/10 09:58:40;;;;;;;3.42;1.58;;;;;;;7.61;100.00;99405.94;6092133;23;20342;-80
2023/12/10 10:01:14;;;;;;;7.25;1.85;;;;;;;7.56;100.00;99397.34;6118990;23;20025;-82
2023/12/10 10:03:41;;;;;;;4.35;1.15;;;;;;;7.61;100.00;99408.53;6092890;23;20463;-82
2023/12/10 10:06:09;;;;;;;4.10;1.27;;;;;;;7.61;100.00;99400.72;6093514;23;20379;-83
2023/12/10 10:08:36;;;;;;;8.45;2.17;;;;;;;7.69;100.00;99400.59;6093322;23;20085;-80
2023/12/10 10:11:05;;;;;;;7.18;1.48;;;;;;;7.71;100.00;99417.06;6119563;23;20033;-80
2023/12/10 10:13:32;;;;;;;7.47;1.73;;;;;;;7.68;100.00;99420.59;6093016;23;20439;-81
2023/12/10 10:16:10;;;;;;;6.68;1.40;;;;;;;7.69;100.00;99424.03;6093261;23;20029;-82
2023/12/10 10:18:43;;;;;;;4.30;1.50;;;;;;;7.67;100.00;99426.66;6117565;23;20101;-80
2023/12/10 10:21:11;;;;;;;4.38;1.48;;;;;;;7.76;100.00;99436.09;6095317;23;20018;-81
2023/12/10 10:23:45;;;;;;;9.48;1.23;;;;;;;7.72;100.00;99437.88;6093653;23;20028;-82
2023/12/10 10:26:12;;;;;;;6.70;1.33;;;;;;;7.68;100.00;99448.34;6094416;23;20029;-81
2023/12/10 10:28:39;;;;;;;11.65;1.75;;;;;;;7.61;100.00;99435.47;6117070;23;20021;-81
2023/12/10 10:31:05;;;;;;;4.53;1.63;;;;;;;7.59;100.00;99450.22;6117086;23;20017;-82
2023/12/10 10:33:32;;;;;;;7.30;1.67;;;;;;;7.59;100.00;99447.63;6117033;23;20025;-81
2023/12/10 10:36:00;;;;;;;6.68;1.80;;;;;;;7.54;100.00;99454.66;6117259;23;20352;-82
2023/12/10 10:38:30;;;;;;;4.13;1.65;;;;;;;7.55;100.00;99465.94;6116047;23;20038;-83
2023/12/10 10:41:01;;;;;;;8.48;1.77;;;;;;;7.52;100.00;99446.03;6092746;23;20018;-81
2023/12/10 10:43:28;;;;;;;6.47;2.17;;;;;;;7.53;100.00;99455.53;6068994;23;20738;-81
2023/12/10 10:45:55;;;;;;;7.03;1.33;;;;;;;7.48;100.00;99459.09;6117330;23;20025;-82
2023/12/10 10:48:26;;;;;;;5.07;1.45;;;;;;;7.48;100.00;99461.72;6093149;23;20035;-82
2023/12/10 10:50:55;;;;;;;5.95;1.77;;;;;;;7.51;100.00;99469.47;6094692;23;20022;-83
2023/12/10 10:53:25;;;;;;;6.28;1.48;;;;;;;7.54;100.00;99465.06;6093421;23;20021;-82
2023/12/10 10:55:52;;;;;;;7.72;1.70;;;;;;;7.41;100.00;99459.19;6093337;23;20080;-82
2023/12/10 10:58:28;;;;;;;6.45;1.63;;;;;;;7.42;100.00;99455.72;6116246;23;20022;-81
2023/12/10 11:00:59;;;;;;;4.57;1.65;;;;;;;7.50;100.00;99475.56;6117693;23;20025;-82
2023/12/10 11:03:27;;;;;;;12.00;2.50;;;;;;;7.51;100.00;99470.34;6092741;23;20848;-81
2023/12/10 11:06:02;;;;;;;9.73;2.00;;;;;;;7.48;100.00;99480.78;6118126;23;20021;-81
2023/12/10 11:08:30;;;;;;;11.65;2.05;;;;;;;7.55;100.00;99482.41;6117030;23;20057;-82
2023/12/10 11:11:01;;;;;;;6.18;1.85;;;;;;;7.57;100.00;99467.66;6118631;23;20018;-82
2023/12/10 11:13:47;;;;;;;13.85;2.13;;;;;;;7.58;100.00;99469.34;6116619;23;20418;-82
2023/12/10 11:16:14;;;;;;;10.98;2.90;;;;;;;7.62;100.00;99476.22;6094035;23;20392;-81
2023/12/10 11:19:15;;;;;;;6.50;2.35;;;;;;;7.60;100.00;99483.22;6117420;23;20025;-81
2023/12/10 11:21:41;;;;;;;12.73;2.75;;;;;;;7.66;100.00;99489.22;6037566;23;20048;-82
2023/12/10 11:24:08;;;;;;;10.75;2.05;;;;;;;7.62;100.00;99491.84;6118229;23;20025;-83
2023/12/10 11:26:34;;;;;;;7.03;2.70;;;;;;;7.65;100.00;99500.50;6117876;23;20021;-80
2023/12/10 11:29:03;;;;;;;6.72;2.25;;;;;;;7.72;100.00;99495.19;6092568;23;20018;-82
2023/12/10 11:31:30;;;;;;;12.60;2.47;;;;;;;7.77;100.00;99509.00;6093151;23;20021;-82
2023/12/10 11:33:56;;;;;;;6.20;1.92;;;;;;;7.91;100.00;99507.91;6093813;23;20025;-81